sensor_id;sensor_type;location;lat;lon;timestamp;P1;durP1;ratioP1;P2;durP2;ratioP2
6739;SDS011;3407;49.882;10.920;2024-03-02T00:00:19;6.63;;;4.67;;
6739;SDS011;3407;49.882;10.920;2024-03-02T00:05:17;3.20;;;3.00;;
6739;SDS011;3407;49.882;10.920;2024-03-02T00:10:16;5.77;;;5.13;;
6739;SDS011;3407;49.882;10.920;2024-03-02T00:20:40;4.10;;;3.77;;
6739;SDS011;3407;49.882;10.920;2024-03-02T00:25:37;4.60;;;4.20;;
6739;SDS011;3407;49.882;10.920;2024-03-02T00:31:17;3.77;;;3.47;;
6739;SDS011;3407;49.882;10.920;2024-03-02T00:35:55;4.67;;;4.27;;
6739;SDS011;3407;49.882;10.920;2024-03-02T00:40:51;9.20;;;5.70;;
6739;SDS011;3407;49.882;10.920;2024-03-02T00:45:47;7.03;;;5.53;;
6739;SDS011;3407;49.882;10.920;2024-03-02T00:50:42;6.30;;;4.30;;
6739;SDS011;3407;49.882;10.920;2024-03-02T00:55:38;5.43;;;4.47;;
6739;SDS011;3407;49.882;10.920;2024-03-02T01:00:39;7.60;;;4.23;;
6739;SDS011;3407;49.882;10.920;2024-03-02T01:05:34;3.00;;;2.87;;
6739;SDS011;3407;49.882;10.920;2024-03-02T01:10:30;2.30;;;2.20;;
6739;SDS011;3407;49.882;10.920;2024-03-02T01:15:26;4.03;;;3.70;;
6739;SDS011;3407;49.882;10.920;2024-03-02T01:20:21;3.67;;;2.67;;
6739;SDS011;3407;49.882;10.920;2024-03-02T01:25:17;3.67;;;3.47;;
6739;SDS011;3407;49.882;10.920;2024-03-02T01:30:13;4.97;;;3.87;;
6739;SDS011;3407;49.882;10.920;2024-03-02T01:35:08;6.93;;;6.30;;
6739;SDS011;3407;49.882;10.920;2024-03-02T01:40:04;10.60;;;5.60;;
6739;SDS011;3407;49.882;10.920;2024-03-02T01:45:04;5.07;;;4.67;;
6739;SDS011;3407;49.882;10.920;2024-03-02T01:50:01;11.60;;;5.17;;
6739;SDS011;3407;49.882;10.920;2024-03-02T01:54:56;6.70;;;6.10;;
6739;SDS011;3407;49.882;10.920;2024-03-02T01:59:52;3.87;;;3.67;;
6739;SDS011;3407;49.882;10.920;2024-03-02T02:04:48;8.50;;;5.27;;
6739;SDS011;3407;49.882;10.920;2024-03-02T02:09:43;5.73;;;5.13;;
6739;SDS011;3407;49.882;10.920;2024-03-02T02:14:39;11.73;;;5.13;;
6739;SDS011;3407;49.882;10.920;2024-03-02T02:19:41;6.63;;;5.87;;
6739;SDS011;3407;49.882;10.920;2024-03-02T02:24:40;4.23;;;3.97;;
6739;SDS011;3407;49.882;10.920;2024-03-02T02:29:36;6.93;;;5.13;;
6739;SDS011;3407;49.882;10.920;2024-03-02T02:34:33;14.57;;;5.23;;
6739;SDS011;3407;49.882;10.920;2024-03-02T02:39:28;6.37;;;4.40;;
6739;SDS011;3407;49.882;10.920;2024-03-02T02:44:24;7.30;;;4.20;;
6739;SDS011;3407;49.882;10.920;2024-03-02T02:49:20;6.60;;;6.03;;
6739;SDS011;3407;49.882;10.920;2024-03-02T02:54:16;4.93;;;4.53;;
6739;SDS011;3407;49.882;10.920;2024-03-02T02:59:12;4.93;;;4.43;;
6739;SDS011;3407;49.882;10.920;2024-03-02T03:04:07;8.60;;;5.37;;
6739;SDS011;3407;49.882;10.920;2024-03-02T03:09:03;5.47;;;4.93;;
6739;SDS011;3407;49.882;10.920;2024-03-02T03:13:59;6.33;;;5.63;;
6739;SDS011;3407;49.882;10.920;2024-03-02T03:18:56;11.30;;;5.97;;
6739;SDS011;3407;49.882;10.920;2024-03-02T03:23:52;5.00;;;4.33;;
6739;SDS011;3407;49.882;10.920;2024-03-02T03:28:47;5.87;;;4.97;;
6739;SDS011;3407;49.882;10.920;2024-03-02T03:33:43;7.13;;;3.60;;
6739;SDS011;3407;49.882;10.920;2024-03-02T03:38:38;6.10;;;5.33;;
6739;SDS011;3407;49.882;10.920;2024-03-02T03:43:34;4.80;;;4.07;;
6739;SDS011;3407;49.882;10.920;2024-03-02T03:48:30;8.83;;;4.77;;
6739;SDS011;3407;49.882;10.920;2024-03-02T03:53:26;11.60;;;7.03;;
6739;SDS011;3407;49.882;10.920;2024-03-02T03:58:21;5.83;;;5.40;;
6739;SDS011;3407;49.882;10.920;2024-03-02T04:03:17;5.17;;;4.77;;
6739;SDS011;3407;49.882;10.920;2024-03-02T04:08:12;6.13;;;5.63;;
6739;SDS011;3407;49.882;10.920;2024-03-02T04:13:08;7.80;;;6.30;;
6739;SDS011;3407;49.882;10.920;2024-03-02T04:18:04;5.00;;;4.43;;
6739;SDS011;3407;49.882;10.920;2024-03-02T04:23:00;5.03;;;4.53;;
6739;SDS011;3407;49.882;10.920;2024-03-02T04:27:55;10.47;;;6.43;;
6739;SDS011;3407;49.882;10.920;2024-03-02T04:32:51;4.80;;;3.83;;
6739;SDS011;3407;49.882;10.920;2024-03-02T04:37:46;6.27;;;4.80;;
6739;SDS011;3407;49.882;10.920;2024-03-02T04:42:42;7.90;;;4.33;;
6739;SDS011;3407;49.882;10.920;2024-03-02T04:47:38;6.23;;;5.63;;
6739;SDS011;3407;49.882;10.920;2024-03-02T04:52:33;9.80;;;5.53;;
6739;SDS011;3407;49.882;10.920;2024-03-02T04:57:29;4.33;;;4.03;;
6739;SDS011;3407;49.882;10.920;2024-03-02T05:02:24;4.00;;;3.77;;
6739;SDS011;3407;49.882;10.920;2024-03-02T05:07:20;5.00;;;4.43;;
6739;SDS011;3407;49.882;10.920;2024-03-02T05:12:15;3.93;;;3.70;;
6739;SDS011;3407;49.882;10.920;2024-03-02T05:17:30;6.23;;;5.70;;
6739;SDS011;3407;49.882;10.920;2024-03-02T05:22:25;6.23;;;5.67;;
6739;SDS011;3407;49.882;10.920;2024-03-02T05:27:20;5.63;;;5.07;;
6739;SDS011;3407;49.882;10.920;2024-03-02T05:32:16;6.53;;;4.77;;
6739;SDS011;3407;49.882;10.920;2024-03-02T05:37:11;6.43;;;4.37;;
6739;SDS011;3407;49.882;10.920;2024-03-02T05:42:07;3.10;;;3.00;;
6739;SDS011;3407;49.882;10.920;2024-03-02T05:47:02;5.20;;;4.60;;
6739;SDS011;3407;49.882;10.920;2024-03-02T05:51:58;6.97;;;5.90;;
6739;SDS011;3407;49.882;10.920;2024-03-02T05:56:54;7.03;;;4.93;;
6739;SDS011;3407;49.882;10.920;2024-03-02T06:01:49;5.40;;;4.90;;
6739;SDS011;3407;49.882;10.920;2024-03-02T06:06:48;4.57;;;4.23;;
6739;SDS011;3407;49.882;10.920;2024-03-02T06:11:44;4.43;;;3.83;;
6739;SDS011;3407;49.882;10.920;2024-03-02T06:16:39;9.73;;;4.40;;
6739;SDS011;3407;49.882;10.920;2024-03-02T06:21:35;4.17;;;3.87;;
6739;SDS011;3407;49.882;10.920;2024-03-02T06:26:30;5.50;;;5.13;;
6739;SDS011;3407;49.882;10.920;2024-03-02T06:31:26;4.53;;;4.23;;
6739;SDS011;3407;49.882;10.920;2024-03-02T06:36:22;4.13;;;3.83;;
6739;SDS011;3407;49.882;10.920;2024-03-02T06:41:18;7.00;;;4.13;;
6739;SDS011;3407;49.882;10.920;2024-03-02T06:46:13;4.40;;;4.03;;
6739;SDS011;3407;49.882;10.920;2024-03-02T06:51:10;4.50;;;4.20;;
6739;SDS011;3407;49.882;10.920;2024-03-02T06:56:06;7.17;;;5.13;;
6739;SDS011;3407;49.882;10.920;2024-03-02T07:01:02;11.73;;;4.10;;
6739;SDS011;3407;49.882;10.920;2024-03-02T07:05:58;3.67;;;3.43;;
6739;SDS011;3407;49.882;10.920;2024-03-02T07:10:53;3.90;;;3.60;;
6739;SDS011;3407;49.882;10.920;2024-03-02T07:15:49;5.30;;;4.53;;
6739;SDS011;3407;49.882;10.920;2024-03-02T07:21:03;5.03;;;4.57;;
6739;SDS011;3407;49.882;10.920;2024-03-02T07:25:59;10.80;;;5.23;;
6739;SDS011;3407;49.882;10.920;2024-03-02T07:31:03;5.27;;;4.07;;
6739;SDS011;3407;49.882;10.920;2024-03-02T07:35:59;6.30;;;4.93;;
6739;SDS011;3407;49.882;10.920;2024-03-02T07:40:56;6.03;;;4.73;;
6739;SDS011;3407;49.882;10.920;2024-03-02T07:45:52;5.97;;;4.70;;
6739;SDS011;3407;49.882;10.920;2024-03-02T07:50:48;9.10;;;5.30;;
6739;SDS011;3407;49.882;10.920;2024-03-02T07:55:43;3.17;;;2.97;;
6739;SDS011;3407;49.882;10.920;2024-03-02T08:00:39;6.03;;;3.53;;
6739;SDS011;3407;49.882;10.920;2024-03-02T08:05:35;12.13;;;6.10;;
6739;SDS011;3407;49.882;10.920;2024-03-02T08:10:30;4.50;;;3.80;;
6739;SDS011;3407;49.882;10.920;2024-03-02T08:15:26;6.30;;;4.20;;
6739;SDS011;3407;49.882;10.920;2024-03-02T08:20:21;8.50;;;4.57;;
6739;SDS011;3407;49.882;10.920;2024-03-02T08:25:17;6.13;;;4.23;;
6739;SDS011;3407;49.882;10.920;2024-03-02T08:30:13;5.13;;;4.03;;
6739;SDS011;3407;49.882;10.920;2024-03-02T08:35:09;4.47;;;3.73;;
6739;SDS011;3407;49.882;10.920;2024-03-02T08:40:05;5.27;;;3.60;;
6739;SDS011;3407;49.882;10.920;2024-03-02T08:45:02;7.80;;;4.70;;
6739;SDS011;3407;49.882;10.920;2024-03-02T08:49:58;4.47;;;3.13;;
6739;SDS011;3407;49.882;10.920;2024-03-02T08:54:54;4.50;;;3.67;;
6739;SDS011;3407;49.882;10.920;2024-03-02T08:59:50;4.37;;;3.37;;
6739;SDS011;3407;49.882;10.920;2024-03-02T09:04:45;5.20;;;3.57;;
6739;SDS011;3407;49.882;10.920;2024-03-02T09:09:41;4.40;;;3.27;;
6739;SDS011;3407;49.882;10.920;2024-03-02T09:14:37;5.27;;;3.57;;
6739;SDS011;3407;49.882;10.920;2024-03-02T09:19:33;7.33;;;3.50;;
6739;SDS011;3407;49.882;10.920;2024-03-02T09:24:28;6.50;;;3.80;;
6739;SDS011;3407;49.882;10.920;2024-03-02T09:29:24;6.93;;;4.90;;
6739;SDS011;3407;49.882;10.920;2024-03-02T09:34:19;4.73;;;3.37;;
6739;SDS011;3407;49.882;10.920;2024-03-02T09:39:15;3.57;;;2.73;;
6739;SDS011;3407;49.882;10.920;2024-03-02T09:44:11;4.67;;;2.97;;
6739;SDS011;3407;49.882;10.920;2024-03-02T09:49:06;5.90;;;3.67;;
6739;SDS011;3407;49.882;10.920;2024-03-02T09:54:02;7.20;;;4.50;;
6739;SDS011;3407;49.882;10.920;2024-03-02T09:58:58;5.67;;;3.27;;
6739;SDS011;3407;49.882;10.920;2024-03-02T10:03:54;4.87;;;3.67;;
6739;SDS011;3407;49.882;10.920;2024-03-02T10:08:52;4.57;;;3.17;;
6739;SDS011;3407;49.882;10.920;2024-03-02T10:13:49;3.60;;;3.23;;
6739;SDS011;3407;49.882;10.920;2024-03-02T10:18:45;4.00;;;3.53;;
6739;SDS011;3407;49.882;10.920;2024-03-02T10:23:40;2.90;;;2.70;;
6739;SDS011;3407;49.882;10.920;2024-03-02T10:28:36;3.50;;;3.03;;
6739;SDS011;3407;49.882;10.920;2024-03-02T10:33:40;4.10;;;3.13;;
6739;SDS011;3407;49.882;10.920;2024-03-02T10:38:36;2.77;;;2.43;;
6739;SDS011;3407;49.882;10.920;2024-03-02T10:43:32;5.67;;;2.73;;
6739;SDS011;3407;49.882;10.920;2024-03-02T10:48:28;5.53;;;2.87;;
6739;SDS011;3407;49.882;10.920;2024-03-02T10:53:25;3.63;;;3.33;;
6739;SDS011;3407;49.882;10.920;2024-03-02T10:58:21;4.73;;;2.83;;
6739;SDS011;3407;49.882;10.920;2024-03-02T11:03:18;4.10;;;3.13;;
6739;SDS011;3407;49.882;10.920;2024-03-02T11:08:16;1.87;;;1.70;;
6739;SDS011;3407;49.882;10.920;2024-03-02T11:13:14;2.30;;;2.13;;
6739;SDS011;3407;49.882;10.920;2024-03-02T11:18:10;2.87;;;2.10;;
6739;SDS011;3407;49.882;10.920;2024-03-02T11:23:07;2.83;;;2.60;;
6739;SDS011;3407;49.882;10.920;2024-03-02T11:28:04;2.20;;;2.00;;
6739;SDS011;3407;49.882;10.920;2024-03-02T11:33:08;2.37;;;1.83;;
6739;SDS011;3407;49.882;10.920;2024-03-02T11:38:04;2.37;;;2.00;;
6739;SDS011;3407;49.882;10.920;2024-03-02T11:43:01;3.07;;;2.20;;
6739;SDS011;3407;49.882;10.920;2024-03-02T11:47:57;3.20;;;2.17;;
6739;SDS011;3407;49.882;10.920;2024-03-02T11:52:53;1.60;;;1.40;;
6739;SDS011;3407;49.882;10.920;2024-03-02T11:57:48;2.17;;;1.50;;
6739;SDS011;3407;49.882;10.920;2024-03-02T12:02:47;1.97;;;1.67;;
6739;SDS011;3407;49.882;10.920;2024-03-02T12:07:59;1.20;;;1.20;;
6739;SDS011;3407;49.882;10.920;2024-03-02T12:12:59;2.23;;;2.03;;
6739;SDS011;3407;49.882;10.920;2024-03-02T12:17:57;2.70;;;1.90;;
6739;SDS011;3407;49.882;10.920;2024-03-02T12:22:53;3.03;;;1.83;;
6739;SDS011;3407;49.882;10.920;2024-03-02T12:27:50;1.80;;;1.70;;
6739;SDS011;3407;49.882;10.920;2024-03-02T12:32:48;1.93;;;1.60;;
6739;SDS011;3407;49.882;10.920;2024-03-02T12:37:46;2.93;;;2.13;;
6739;SDS011;3407;49.882;10.920;2024-03-02T12:42:43;2.67;;;1.80;;
6739;SDS011;3407;49.882;10.920;2024-03-02T12:47:39;1.80;;;1.70;;
6739;SDS011;3407;49.882;10.920;2024-03-02T12:52:35;4.57;;;2.67;;
6739;SDS011;3407;49.882;10.920;2024-03-02T12:57:31;5.83;;;2.93;;
6739;SDS011;3407;49.882;10.920;2024-03-02T13:02:30;3.97;;;2.93;;
6739;SDS011;3407;49.882;10.920;2024-03-02T13:07:26;3.97;;;2.77;;
6739;SDS011;3407;49.882;10.920;2024-03-02T13:12:22;3.97;;;2.87;;
6739;SDS011;3407;49.882;10.920;2024-03-02T13:17:19;3.70;;;2.93;;
6739;SDS011;3407;49.882;10.920;2024-03-02T13:22:15;2.53;;;2.33;;
6739;SDS011;3407;49.882;10.920;2024-03-02T13:27:11;3.27;;;2.27;;
6739;SDS011;3407;49.882;10.920;2024-03-02T13:32:06;2.07;;;1.93;;
6739;SDS011;3407;49.882;10.920;2024-03-02T13:37:02;2.73;;;2.20;;
6739;SDS011;3407;49.882;10.920;2024-03-02T13:41:59;2.83;;;2.33;;
6739;SDS011;3407;49.882;10.920;2024-03-02T13:47:00;4.40;;;2.40;;
6739;SDS011;3407;49.882;10.920;2024-03-02T13:51:56;2.57;;;2.07;;
6739;SDS011;3407;49.882;10.920;2024-03-02T13:56:52;3.77;;;2.50;;
6739;SDS011;3407;49.882;10.920;2024-03-02T14:01:47;3.43;;;2.30;;
6739;SDS011;3407;49.882;10.920;2024-03-02T14:06:43;2.63;;;2.23;;
6739;SDS011;3407;49.882;10.920;2024-03-02T14:11:39;2.90;;;2.40;;
6739;SDS011;3407;49.882;10.920;2024-03-02T14:16:34;2.60;;;2.40;;
6739;SDS011;3407;49.882;10.920;2024-03-02T14:21:30;2.97;;;2.17;;
6739;SDS011;3407;49.882;10.920;2024-03-02T14:26:26;3.40;;;2.20;;
6739;SDS011;3407;49.882;10.920;2024-03-02T14:31:23;3.30;;;2.53;;
6739;SDS011;3407;49.882;10.920;2024-03-02T14:36:18;3.40;;;3.10;;
6739;SDS011;3407;49.882;10.920;2024-03-02T14:41:14;3.70;;;2.40;;
6739;SDS011;3407;49.882;10.920;2024-03-02T14:46:09;2.90;;;2.20;;
6739;SDS011;3407;49.882;10.920;2024-03-02T14:51:06;4.83;;;3.13;;
6739;SDS011;3407;49.882;10.920;2024-03-02T14:56:01;7.33;;;3.00;;
6739;SDS011;3407;49.882;10.920;2024-03-02T15:00:57;4.23;;;2.97;;
6739;SDS011;3407;49.882;10.920;2024-03-02T15:05:53;3.77;;;2.87;;
6739;SDS011;3407;49.882;10.920;2024-03-02T15:10:48;4.30;;;2.47;;
6739;SDS011;3407;49.882;10.920;2024-03-02T15:15:44;4.03;;;2.93;;
6739;SDS011;3407;49.882;10.920;2024-03-02T15:20:39;6.07;;;2.27;;
6739;SDS011;3407;49.882;10.920;2024-03-02T15:25:35;3.73;;;2.60;;
6739;SDS011;3407;49.882;10.920;2024-03-02T15:30:31;3.90;;;2.73;;
6739;SDS011;3407;49.882;10.920;2024-03-02T15:35:27;5.23;;;3.77;;
6739;SDS011;3407;49.882;10.920;2024-03-02T15:40:23;5.20;;;3.57;;
6739;SDS011;3407;49.882;10.920;2024-03-02T15:45:18;4.57;;;3.63;;
6739;SDS011;3407;49.882;10.920;2024-03-02T15:50:14;6.37;;;3.60;;
6739;SDS011;3407;49.882;10.920;2024-03-02T15:55:10;2.87;;;2.63;;
6739;SDS011;3407;49.882;10.920;2024-03-02T16:00:05;5.70;;;3.23;;
6739;SDS011;3407;49.882;10.920;2024-03-02T16:05:01;5.43;;;3.30;;
6739;SDS011;3407;49.882;10.920;2024-03-02T16:09:57;5.27;;;3.13;;
6739;SDS011;3407;49.882;10.920;2024-03-02T16:14:52;6.10;;;3.43;;
6739;SDS011;3407;49.882;10.920;2024-03-02T16:19:48;5.10;;;4.13;;
6739;SDS011;3407;49.882;10.920;2024-03-02T16:24:43;3.13;;;2.60;;
6739;SDS011;3407;49.882;10.920;2024-03-02T16:29:39;4.27;;;2.73;;
6739;SDS011;3407;49.882;10.920;2024-03-02T16:34:34;3.03;;;2.60;;
6739;SDS011;3407;49.882;10.920;2024-03-02T16:39:30;4.77;;;3.60;;
6739;SDS011;3407;49.882;10.920;2024-03-02T16:44:26;3.23;;;2.93;;
6739;SDS011;3407;49.882;10.920;2024-03-02T16:49:21;10.83;;;3.70;;
6739;SDS011;3407;49.882;10.920;2024-03-02T16:54:17;3.93;;;3.50;;
6739;SDS011;3407;49.882;10.920;2024-03-02T16:59:12;4.90;;;2.97;;
6739;SDS011;3407;49.882;10.920;2024-03-02T17:04:08;3.07;;;2.87;;
6739;SDS011;3407;49.882;10.920;2024-03-02T17:09:04;4.00;;;2.53;;
6739;SDS011;3407;49.882;10.920;2024-03-02T17:14:00;8.67;;;4.80;;
6739;SDS011;3407;49.882;10.920;2024-03-02T17:18:57;6.37;;;3.57;;
6739;SDS011;3407;49.882;10.920;2024-03-02T17:23:53;3.13;;;2.93;;
6739;SDS011;3407;49.882;10.920;2024-03-02T17:28:48;4.00;;;3.63;;
6739;SDS011;3407;49.882;10.920;2024-03-02T17:33:44;4.97;;;3.73;;
6739;SDS011;3407;49.882;10.920;2024-03-02T17:38:40;5.43;;;4.17;;
6739;SDS011;3407;49.882;10.920;2024-03-02T17:43:36;4.17;;;3.20;;
6739;SDS011;3407;49.882;10.920;2024-03-02T17:48:32;2.60;;;2.40;;
6739;SDS011;3407;49.882;10.920;2024-03-02T17:53:28;4.17;;;3.23;;
6739;SDS011;3407;49.882;10.920;2024-03-02T17:58:23;3.03;;;2.83;;
6739;SDS011;3407;49.882;10.920;2024-03-02T18:03:19;6.23;;;2.47;;
6739;SDS011;3407;49.882;10.920;2024-03-02T18:08:14;2.23;;;2.13;;
6739;SDS011;3407;49.882;10.920;2024-03-02T18:13:10;2.97;;;2.80;;
6739;SDS011;3407;49.882;10.920;2024-03-02T18:18:06;5.47;;;3.30;;
6739;SDS011;3407;49.882;10.920;2024-03-02T18:23:02;6.13;;;4.37;;
6739;SDS011;3407;49.882;10.920;2024-03-02T18:27:57;4.73;;;3.20;;
6739;SDS011;3407;49.882;10.920;2024-03-02T18:32:53;3.70;;;3.00;;
6739;SDS011;3407;49.882;10.920;2024-03-02T18:37:49;4.00;;;2.73;;
6739;SDS011;3407;49.882;10.920;2024-03-02T18:42:44;4.23;;;3.87;;
6739;SDS011;3407;49.882;10.920;2024-03-02T18:47:40;3.13;;;2.90;;
6739;SDS011;3407;49.882;10.920;2024-03-02T18:52:35;2.77;;;2.57;;
6739;SDS011;3407;49.882;10.920;2024-03-02T18:57:32;4.67;;;3.83;;
6739;SDS011;3407;49.882;10.920;2024-03-02T19:02:28;5.87;;;3.53;;
6739;SDS011;3407;49.882;10.920;2024-03-02T19:07:24;3.70;;;3.40;;
6739;SDS011;3407;49.882;10.920;2024-03-02T19:12:19;4.63;;;4.10;;
6739;SDS011;3407;49.882;10.920;2024-03-02T19:17:16;2.63;;;2.53;;
6739;SDS011;3407;49.882;10.920;2024-03-02T19:22:11;3.13;;;2.83;;
6739;SDS011;3407;49.882;10.920;2024-03-02T19:27:07;2.80;;;2.70;;
6739;SDS011;3407;49.882;10.920;2024-03-02T19:32:02;3.87;;;3.43;;
6739;SDS011;3407;49.882;10.920;2024-03-02T19:36:58;9.10;;;3.37;;
6739;SDS011;3407;49.882;10.920;2024-03-02T19:41:54;7.63;;;3.87;;
6739;SDS011;3407;49.882;10.920;2024-03-02T19:46:50;3.10;;;2.90;;
6739;SDS011;3407;49.882;10.920;2024-03-02T19:51:46;3.33;;;2.73;;
6739;SDS011;3407;49.882;10.920;2024-03-02T19:56:42;5.87;;;3.90;;
6739;SDS011;3407;49.882;10.920;2024-03-02T20:01:38;2.47;;;2.23;;
6739;SDS011;3407;49.882;10.920;2024-03-02T20:06:37;3.80;;;3.37;;
6739;SDS011;3407;49.882;10.920;2024-03-02T20:11:33;2.23;;;2.03;;
6739;SDS011;3407;49.882;10.920;2024-03-02T20:16:29;4.20;;;3.80;;
6739;SDS011;3407;49.882;10.920;2024-03-02T20:21:24;3.20;;;3.00;;
6739;SDS011;3407;49.882;10.920;2024-03-02T20:26:20;3.57;;;3.37;;
6739;SDS011;3407;49.882;10.920;2024-03-02T20:31:15;3.73;;;3.53;;
6739;SDS011;3407;49.882;10.920;2024-03-02T20:36:14;3.57;;;3.23;;
6739;SDS011;3407;49.882;10.920;2024-03-02T20:41:17;3.03;;;2.83;;
6739;SDS011;3407;49.882;10.920;2024-03-02T20:46:13;6.43;;;3.40;;
6739;SDS011;3407;49.882;10.920;2024-03-02T20:51:09;3.63;;;3.33;;
6739;SDS011;3407;49.882;10.920;2024-03-02T20:56:05;3.30;;;3.00;;
6739;SDS011;3407;49.882;10.920;2024-03-02T21:01:01;2.43;;;2.23;;
6739;SDS011;3407;49.882;10.920;2024-03-02T21:05:56;3.17;;;3.03;;
6739;SDS011;3407;49.882;10.920;2024-03-02T21:10:52;3.57;;;2.40;;
6739;SDS011;3407;49.882;10.920;2024-03-02T21:15:47;5.10;;;3.13;;
6739;SDS011;3407;49.882;10.920;2024-03-02T21:20:43;2.63;;;2.50;;
6739;SDS011;3407;49.882;10.920;2024-03-02T21:25:38;2.50;;;2.37;;
6739;SDS011;3407;49.882;10.920;2024-03-02T21:30:34;5.90;;;3.97;;
6739;SDS011;3407;49.882;10.920;2024-03-02T21:35:30;2.73;;;2.53;;
6739;SDS011;3407;49.882;10.920;2024-03-02T21:40:26;4.57;;;3.23;;
6739;SDS011;3407;49.882;10.920;2024-03-02T21:45:22;3.27;;;2.73;;
6739;SDS011;3407;49.882;10.920;2024-03-02T21:50:18;3.70;;;3.40;;
6739;SDS011;3407;49.882;10.920;2024-03-02T21:55:14;5.83;;;4.10;;
6739;SDS011;3407;49.882;10.920;2024-03-02T22:00:10;4.57;;;4.17;;
6739;SDS011;3407;49.882;10.920;2024-03-02T22:05:06;3.60;;;3.30;;
6739;SDS011;3407;49.882;10.920;2024-03-02T22:10:02;4.27;;;3.93;;
6739;SDS011;3407;49.882;10.920;2024-03-02T22:14:59;3.33;;;2.80;;
6739;SDS011;3407;49.882;10.920;2024-03-02T22:19:55;3.97;;;3.70;;
6739;SDS011;3407;49.882;10.920;2024-03-02T22:24:51;3.67;;;3.47;;
6739;SDS011;3407;49.882;10.920;2024-03-02T22:29:46;6.03;;;4.47;;
6739;SDS011;3407;49.882;10.920;2024-03-02T22:34:42;7.23;;;3.63;;
6739;SDS011;3407;49.882;10.920;2024-03-02T22:39:37;8.20;;;5.87;;
6739;SDS011;3407;49.882;10.920;2024-03-02T22:44:33;3.40;;;3.20;;
6739;SDS011;3407;49.882;10.920;2024-03-02T22:49:29;4.27;;;3.73;;
6739;SDS011;3407;49.882;10.920;2024-03-02T22:54:25;5.50;;;5.07;;
6739;SDS011;3407;49.882;10.920;2024-03-02T22:59:20;4.97;;;4.57;;
6739;SDS011;3407;49.882;10.920;2024-03-02T23:04:16;3.13;;;3.03;;
6739;SDS011;3407;49.882;10.920;2024-03-02T23:09:11;3.40;;;3.03;;
6739;SDS011;3407;49.882;10.920;2024-03-02T23:14:07;15.07;;;5.33;;
6739;SDS011;3407;49.882;10.920;2024-03-02T23:19:03;5.80;;;2.93;;
6739;SDS011;3407;49.882;10.920;2024-03-02T23:23:58;3.57;;;3.37;;
6739;SDS011;3407;49.882;10.920;2024-03-02T23:28:54;5.00;;;4.10;;
6739;SDS011;3407;49.882;10.920;2024-03-02T23:33:49;4.83;;;3.87;;
6739;SDS011;3407;49.882;10.920;2024-03-02T23:38:45;4.03;;;3.83;;
6739;SDS011;3407;49.882;10.920;2024-03-02T23:43:40;4.03;;;2.93;;
6739;SDS011;3407;49.882;10.920;2024-03-02T23:48:36;2.97;;;2.67;;
6739;SDS011;3407;49.882;10.920;2024-03-02T23:53:32;4.10;;;3.77;;
6739;SDS011;3407;49.882;10.920;2024-03-02T23:58:27;3.80;;;3.03;;
